Hubbard, Texas
Current Conditions -  °F | °C
As of 10:53 PM on Saturday 22 Nov 2014 (Local Time) from KCNW Reporting Station
Light Rain Light Rain  
Wind Chill: 57°   Ceiling: 9000
Heat Index: 57°   Visibility: 10mi
Dew Point: 57°   Wind: 0mph
Humidity: 100%   Direction: NA
Pressure: 29.76"   Gusts: NA
Location:  31.85°N, 96.8°W
Report Text: KCNW 230453Z 00000KT 10SM -RA BKN090 OVC120 14/14 A2976
Loading
Personal Weather Stations






























Interactive Weather Map New forecast layout! Learn more

10-Day Weather Forecast

Advertisements
Track Severe Weather on mobile